sensor_id;sensor_type;location;lat;lon;timestamp;temperature;humidity
27890;DHT22;15238;49.082;9.102;2023-04-24T00:01:18;11.50;99.90
27890;DHT22;15238;49.082;9.102;2023-04-24T00:03:19;11.40;99.90
27890;DHT22;15238;49.082;9.102;2023-04-24T00:05:21;11.40;99.90
27890;DHT22;15238;49.082;9.102;2023-04-24T00:07:22;11.40;99.90
27890;DHT22;15238;49.082;9.102;2023-04-24T00:09:23;11.40;99.90
27890;DHT22;15238;49.082;9.102;2023-04-24T00:11:24;11.50;99.90
27890;DHT22;15238;49.082;9.102;2023-04-24T00:13:25;11.50;99.90
27890;DHT22;15238;49.082;9.102;2023-04-24T00:15:25;11.50;99.90
27890;DHT22;15238;49.082;9.102;2023-04-24T00:17:26;11.60;99.90
27890;DHT22;15238;49.082;9.102;2023-04-24T00:19:26;11.60;99.90
27890;DHT22;15238;49.082;9.102;2023-04-24T00:21:27;11.60;99.90
27890;DHT22;15238;49.082;9.102;2023-04-24T00:23:27;11.50;99.90
27890;DHT22;15238;49.082;9.102;2023-04-24T00:25:28;11.50;99.90
27890;DHT22;15238;49.082;9.102;2023-04-24T00:27:28;11.50;99.90
27890;DHT22;15238;49.082;9.102;2023-04-24T00:29:29;11.40;99.90
27890;DHT22;15238;49.082;9.102;2023-04-24T00:31:29;11.40;99.90
27890;DHT22;15238;49.082;9.102;2023-04-24T00:33:30;11.40;99.90
27890;DHT22;15238;49.082;9.102;2023-04-24T00:35:30;11.50;99.90
27890;DHT22;15238;49.082;9.102;2023-04-24T00:37:31;11.40;99.90
27890;DHT22;15238;49.082;9.102;2023-04-24T00:39:32;11.50;99.90
27890;DHT22;15238;49.082;9.102;2023-04-24T00:41:33;11.50;99.90
27890;DHT22;15238;49.082;9.102;2023-04-24T00:43:33;11.50;99.90
27890;DHT22;15238;49.082;9.102;2023-04-24T00:45:34;11.50;99.90
27890;DHT22;15238;49.082;9.102;2023-04-24T00:47:34;11.50;99.90
27890;DHT22;15238;49.082;9.102;2023-04-24T00:49:35;11.50;99.90
27890;DHT22;15238;49.082;9.102;2023-04-24T00:51:35;11.50;99.90
27890;DHT22;15238;49.082;9.102;2023-04-24T00:53:36;11.50;99.90
27890;DHT22;15238;49.082;9.102;2023-04-24T00:55:37;11.40;99.90
27890;DHT22;15238;49.082;9.102;2023-04-24T00:57:38;11.50;99.90
27890;DHT22;15238;49.082;9.102;2023-04-24T00:59:39;11.50;99.90
27890;DHT22;15238;49.082;9.102;2023-04-24T01:01:41;11.40;99.90
27890;DHT22;15238;49.082;9.102;2023-04-24T01:03:42;11.50;99.90
27890;DHT22;15238;49.082;9.102;2023-04-24T01:05:43;11.40;99.90
27890;DHT22;15238;49.082;9.102;2023-04-24T01:07:45;11.50;99.90
27890;DHT22;15238;49.082;9.102;2023-04-24T01:09:48;11.50;99.90
27890;DHT22;15238;49.082;9.102;2023-04-24T01:11:51;11.50;99.90
27890;DHT22;15238;49.082;9.102;2023-04-24T01:13:52;11.40;99.90
27890;DHT22;15238;49.082;9.102;2023-04-24T01:15:52;11.40;99.90
27890;DHT22;15238;49.082;9.102;2023-04-24T01:17:53;11.40;99.90
27890;DHT22;15238;49.082;9.102;2023-04-24T01:19:53;11.40;99.90
27890;DHT22;15238;49.082;9.102;2023-04-24T01:21:58;11.40;99.90
27890;DHT22;15238;49.082;9.102;2023-04-24T01:23:59;11.30;99.90
27890;DHT22;15238;49.082;9.102;2023-04-24T01:25:59;11.30;99.90
27890;DHT22;15238;49.082;9.102;2023-04-24T01:28:00;11.20;99.90
27890;DHT22;15238;49.082;9.102;2023-04-24T01:30:01;11.20;99.90
27890;DHT22;15238;49.082;9.102;2023-04-24T01:32:03;11.20;99.90
27890;DHT22;15238;49.082;9.102;2023-04-24T01:34:04;11.20;99.90
27890;DHT22;15238;49.082;9.102;2023-04-24T01:36:05;11.10;99.90
27890;DHT22;15238;49.082;9.102;2023-04-24T01:38:06;11.10;99.90
27890;DHT22;15238;49.082;9.102;2023-04-24T01:40:07;11.10;99.90
27890;DHT22;15238;49.082;9.102;2023-04-24T01:42:08;11.10;99.90
27890;DHT22;15238;49.082;9.102;2023-04-24T01:44:08;11.00;99.90
27890;DHT22;15238;49.082;9.102;2023-04-24T01:46:09;11.00;99.90
27890;DHT22;15238;49.082;9.102;2023-04-24T01:48:11;11.00;99.90
27890;DHT22;15238;49.082;9.102;2023-04-24T01:50:12;11.00;99.90
27890;DHT22;15238;49.082;9.102;2023-04-24T01:52:12;11.00;99.90
27890;DHT22;15238;49.082;9.102;2023-04-24T01:54:13;11.00;99.90
27890;DHT22;15238;49.082;9.102;2023-04-24T01:56:14;11.00;99.90
27890;DHT22;15238;49.082;9.102;2023-04-24T01:58:15;11.00;99.90
27890;DHT22;15238;49.082;9.102;2023-04-24T02:00:15;11.00;99.90
27890;DHT22;15238;49.082;9.102;2023-04-24T02:02:16;11.00;99.90
27890;DHT22;15238;49.082;9.102;2023-04-24T02:04:16;11.00;99.90
27890;DHT22;15238;49.082;9.102;2023-04-24T02:06:17;11.00;99.90
27890;DHT22;15238;49.082;9.102;2023-04-24T02:08:17;11.00;99.90
27890;DHT22;15238;49.082;9.102;2023-04-24T02:10:18;10.90;99.90
27890;DHT22;15238;49.082;9.102;2023-04-24T02:12:19;10.90;99.90
27890;DHT22;15238;49.082;9.102;2023-04-24T02:14:19;10.90;99.90
27890;DHT22;15238;49.082;9.102;2023-04-24T02:16:20;10.90;99.90
27890;DHT22;15238;49.082;9.102;2023-04-24T02:18:20;10.90;99.90
27890;DHT22;15238;49.082;9.102;2023-04-24T02:20:23;10.90;99.90
27890;DHT22;15238;49.082;9.102;2023-04-24T02:22:23;10.90;99.90
27890;DHT22;15238;49.082;9.102;2023-04-24T02:24:24;10.90;99.90
27890;DHT22;15238;49.082;9.102;2023-04-24T02:26:24;11.00;99.90
27890;DHT22;15238;49.082;9.102;2023-04-24T02:28:25;10.90;99.90
27890;DHT22;15238;49.082;9.102;2023-04-24T02:30:26;10.90;99.90
27890;DHT22;15238;49.082;9.102;2023-04-24T02:32:26;10.90;99.90
27890;DHT22;15238;49.082;9.102;2023-04-24T02:34:27;10.90;99.90
27890;DHT22;15238;49.082;9.102;2023-04-24T02:36:27;10.90;99.90
27890;DHT22;15238;49.082;9.102;2023-04-24T02:38:28;11.00;99.90
27890;DHT22;15238;49.082;9.102;2023-04-24T02:40:29;11.00;99.90
27890;DHT22;15238;49.082;9.102;2023-04-24T02:42:30;11.00;99.90
27890;DHT22;15238;49.082;9.102;2023-04-24T02:44:30;11.00;99.90
27890;DHT22;15238;49.082;9.102;2023-04-24T02:46:31;11.00;99.90
27890;DHT22;15238;49.082;9.102;2023-04-24T02:48:31;11.00;99.90
27890;DHT22;15238;49.082;9.102;2023-04-24T02:50:32;10.90;99.90
27890;DHT22;15238;49.082;9.102;2023-04-24T02:52:33;10.90;99.90
27890;DHT22;15238;49.082;9.102;2023-04-24T02:54:34;10.80;99.90
27890;DHT22;15238;49.082;9.102;2023-04-24T02:56:35;10.80;99.90
27890;DHT22;15238;49.082;9.102;2023-04-24T02:58:35;10.80;99.90
27890;DHT22;15238;49.082;9.102;2023-04-24T03:00:36;10.80;99.90
27890;DHT22;15238;49.082;9.102;2023-04-24T03:02:36;10.70;99.90
27890;DHT22;15238;49.082;9.102;2023-04-24T03:04:37;10.80;99.90
27890;DHT22;15238;49.082;9.102;2023-04-24T03:06:37;10.80;99.90
27890;DHT22;15238;49.082;9.102;2023-04-24T03:08:38;10.80;99.90
27890;DHT22;15238;49.082;9.102;2023-04-24T03:10:38;10.90;99.90
27890;DHT22;15238;49.082;9.102;2023-04-24T03:12:39;10.80;99.90
27890;DHT22;15238;49.082;9.102;2023-04-24T03:14:39;10.80;99.90
27890;DHT22;15238;49.082;9.102;2023-04-24T03:16:40;10.80;99.90
27890;DHT22;15238;49.082;9.102;2023-04-24T03:18:40;10.80;99.90
27890;DHT22;15238;49.082;9.102;2023-04-24T03:20:42;10.80;99.90
27890;DHT22;15238;49.082;9.102;2023-04-24T03:22:42;10.80;99.90
27890;DHT22;15238;49.082;9.102;2023-04-24T03:24:43;10.80;99.90
27890;DHT22;15238;49.082;9.102;2023-04-24T03:26:43;10.90;99.90
27890;DHT22;15238;49.082;9.102;2023-04-24T03:28:44;10.90;99.90
27890;DHT22;15238;49.082;9.102;2023-04-24T03:30:44;10.90;99.90
27890;DHT22;15238;49.082;9.102;2023-04-24T03:32:45;10.90;99.90
27890;DHT22;15238;49.082;9.102;2023-04-24T03:34:46;10.90;99.90
27890;DHT22;15238;49.082;9.102;2023-04-24T03:36:46;10.90;99.90
27890;DHT22;15238;49.082;9.102;2023-04-24T03:38:49;10.90;99.90
27890;DHT22;15238;49.082;9.102;2023-04-24T03:40:50;10.90;99.90
27890;DHT22;15238;49.082;9.102;2023-04-24T03:42:50;10.90;99.90
27890;DHT22;15238;49.082;9.102;2023-04-24T03:44:51;10.90;99.90
27890;DHT22;15238;49.082;9.102;2023-04-24T03:46:51;10.90;99.90
27890;DHT22;15238;49.082;9.102;2023-04-24T03:48:52;11.00;99.90
27890;DHT22;15238;49.082;9.102;2023-04-24T03:50:52;11.00;99.90
27890;DHT22;15238;49.082;9.102;2023-04-24T03:52:53;11.00;99.90
27890;DHT22;15238;49.082;9.102;2023-04-24T03:54:53;11.00;99.90
27890;DHT22;15238;49.082;9.102;2023-04-24T03:56:55;11.00;99.90
27890;DHT22;15238;49.082;9.102;2023-04-24T03:58:56;11.10;99.90
27890;DHT22;15238;49.082;9.102;2023-04-24T04:00:56;11.20;99.90
27890;DHT22;15238;49.082;9.102;2023-04-24T04:02:58;11.20;99.90
27890;DHT22;15238;49.082;9.102;2023-04-24T04:04:59;11.30;99.90
27890;DHT22;15238;49.082;9.102;2023-04-24T04:06:59;11.30;99.90
27890;DHT22;15238;49.082;9.102;2023-04-24T04:09:03;11.30;99.90
27890;DHT22;15238;49.082;9.102;2023-04-24T04:11:03;11.30;99.90
27890;DHT22;15238;49.082;9.102;2023-04-24T04:13:04;11.20;99.90
27890;DHT22;15238;49.082;9.102;2023-04-24T04:15:04;11.20;99.90
27890;DHT22;15238;49.082;9.102;2023-04-24T04:17:07;11.20;99.90
27890;DHT22;15238;49.082;9.102;2023-04-24T04:19:07;11.00;99.90
27890;DHT22;15238;49.082;9.102;2023-04-24T04:21:08;10.80;99.90
27890;DHT22;15238;49.082;9.102;2023-04-24T04:23:08;10.60;99.90
27890;DHT22;15238;49.082;9.102;2023-04-24T04:25:09;10.50;99.90
27890;DHT22;15238;49.082;9.102;2023-04-24T04:27:09;10.30;99.90
27890;DHT22;15238;49.082;9.102;2023-04-24T04:29:11;10.30;99.90
27890;DHT22;15238;49.082;9.102;2023-04-24T04:31:12;10.30;99.90
27890;DHT22;15238;49.082;9.102;2023-04-24T04:33:13;10.20;99.90
27890;DHT22;15238;49.082;9.102;2023-04-24T04:35:14;10.30;99.90
27890;DHT22;15238;49.082;9.102;2023-04-24T04:37:15;10.20;99.90
27890;DHT22;15238;49.082;9.102;2023-04-24T04:39:16;10.10;99.90
27890;DHT22;15238;49.082;9.102;2023-04-24T04:41:16;10.00;99.90
27890;DHT22;15238;49.082;9.102;2023-04-24T04:43:18;10.00;99.90
27890;DHT22;15238;49.082;9.102;2023-04-24T04:45:19;9.90;99.90
27890;DHT22;15238;49.082;9.102;2023-04-24T04:47:21;10.00;99.90
27890;DHT22;15238;49.082;9.102;2023-04-24T04:49:23;10.00;99.90
27890;DHT22;15238;49.082;9.102;2023-04-24T04:51:24;9.90;99.90
27890;DHT22;15238;49.082;9.102;2023-04-24T04:53:25;9.90;99.90
27890;DHT22;15238;49.082;9.102;2023-04-24T04:55:26;9.90;99.90
27890;DHT22;15238;49.082;9.102;2023-04-24T04:57:26;9.90;99.90
27890;DHT22;15238;49.082;9.102;2023-04-24T04:59:27;9.90;99.90
27890;DHT22;15238;49.082;9.102;2023-04-24T05:01:27;9.90;99.90
27890;DHT22;15238;49.082;9.102;2023-04-24T05:03:28;9.80;99.90
27890;DHT22;15238;49.082;9.102;2023-04-24T05:05:29;9.80;99.90
27890;DHT22;15238;49.082;9.102;2023-04-24T05:07:29;9.80;99.90
27890;DHT22;15238;49.082;9.102;2023-04-24T05:09:30;9.80;99.90
27890;DHT22;15238;49.082;9.102;2023-04-24T05:11:30;9.80;99.90
27890;DHT22;15238;49.082;9.102;2023-04-24T05:13:31;9.80;99.90
27890;DHT22;15238;49.082;9.102;2023-04-24T05:15:32;9.70;99.90
27890;DHT22;15238;49.082;9.102;2023-04-24T05:17:32;9.70;99.90
27890;DHT22;15238;49.082;9.102;2023-04-24T05:19:33;9.60;99.90
27890;DHT22;15238;49.082;9.102;2023-04-24T05:21:36;9.60;99.90
27890;DHT22;15238;49.082;9.102;2023-04-24T05:23:36;9.60;99.90
27890;DHT22;15238;49.082;9.102;2023-04-24T05:25:37;9.50;99.90
27890;DHT22;15238;49.082;9.102;2023-04-24T05:27:39;9.50;99.90
27890;DHT22;15238;49.082;9.102;2023-04-24T05:29:40;9.60;99.90
27890;DHT22;15238;49.082;9.102;2023-04-24T05:31:40;9.60;99.90
27890;DHT22;15238;49.082;9.102;2023-04-24T05:33:41;9.70;99.90
27890;DHT22;15238;49.082;9.102;2023-04-24T05:35:42;9.80;99.90
27890;DHT22;15238;49.082;9.102;2023-04-24T05:37:46;10.00;99.90
27890;DHT22;15238;49.082;9.102;2023-04-24T05:39:47;10.20;99.90
27890;DHT22;15238;49.082;9.102;2023-04-24T05:41:48;10.30;99.90
27890;DHT22;15238;49.082;9.102;2023-04-24T05:43:48;10.30;99.90
27890;DHT22;15238;49.082;9.102;2023-04-24T05:45:49;10.30;99.90
27890;DHT22;15238;49.082;9.102;2023-04-24T05:47:50;10.50;99.90
27890;DHT22;15238;49.082;9.102;2023-04-24T05:49:52;10.70;99.90
27890;DHT22;15238;49.082;9.102;2023-04-24T05:51:53;10.80;99.90
27890;DHT22;15238;49.082;9.102;2023-04-24T05:53:54;11.00;99.90
27890;DHT22;15238;49.082;9.102;2023-04-24T05:55:55;11.20;99.90
27890;DHT22;15238;49.082;9.102;2023-04-24T05:57:55;11.30;99.90
27890;DHT22;15238;49.082;9.102;2023-04-24T05:59:56;11.40;99.90
27890;DHT22;15238;49.082;9.102;2023-04-24T06:01:56;11.40;99.90
27890;DHT22;15238;49.082;9.102;2023-04-24T06:03:57;11.40;99.90
27890;DHT22;15238;49.082;9.102;2023-04-24T06:05:58;11.40;99.90
27890;DHT22;15238;49.082;9.102;2023-04-24T06:07:58;11.50;99.90
27890;DHT22;15238;49.082;9.102;2023-04-24T06:09:59;11.40;99.90
27890;DHT22;15238;49.082;9.102;2023-04-24T06:11:59;11.60;99.90
27890;DHT22;15238;49.082;9.102;2023-04-24T06:14:00;11.70;99.90
27890;DHT22;15238;49.082;9.102;2023-04-24T06:16:00;11.80;99.90
27890;DHT22;15238;49.082;9.102;2023-04-24T06:18:02;11.80;99.90
27890;DHT22;15238;49.082;9.102;2023-04-24T06:20:03;11.60;99.90
27890;DHT22;15238;49.082;9.102;2023-04-24T06:22:05;11.60;99.90
27890;DHT22;15238;49.082;9.102;2023-04-24T06:24:06;11.60;99.90
27890;DHT22;15238;49.082;9.102;2023-04-24T06:26:07;11.60;99.90
27890;DHT22;15238;49.082;9.102;2023-04-24T06:28:07;11.90;99.90
27890;DHT22;15238;49.082;9.102;2023-04-24T06:30:08;11.90;99.90
27890;DHT22;15238;49.082;9.102;2023-04-24T06:32:09;11.90;99.90
27890;DHT22;15238;49.082;9.102;2023-04-24T06:34:09;11.80;99.90
27890;DHT22;15238;49.082;9.102;2023-04-24T06:36:10;11.90;99.90
27890;DHT22;15238;49.082;9.102;2023-04-24T06:38:11;12.10;99.90
27890;DHT22;15238;49.082;9.102;2023-04-24T06:40:11;12.10;99.90
27890;DHT22;15238;49.082;9.102;2023-04-24T06:42:12;12.20;99.90
27890;DHT22;15238;49.082;9.102;2023-04-24T06:44:13;12.10;99.90
27890;DHT22;15238;49.082;9.102;2023-04-24T06:46:14;12.30;99.90
27890;DHT22;15238;49.082;9.102;2023-04-24T06:48:15;12.40;99.90
27890;DHT22;15238;49.082;9.102;2023-04-24T06:50:16;12.30;99.90
27890;DHT22;15238;49.082;9.102;2023-04-24T06:52:17;12.50;99.90
27890;DHT22;15238;49.082;9.102;2023-04-24T06:54:17;12.60;99.90
27890;DHT22;15238;49.082;9.102;2023-04-24T06:56:18;12.50;99.90
27890;DHT22;15238;49.082;9.102;2023-04-24T06:58:18;12.30;99.90
27890;DHT22;15238;49.082;9.102;2023-04-24T07:00:19;12.40;99.90
27890;DHT22;15238;49.082;9.102;2023-04-24T07:02:19;12.40;99.90
27890;DHT22;15238;49.082;9.102;2023-04-24T07:04:20;12.40;99.90
27890;DHT22;15238;49.082;9.102;2023-04-24T07:06:21;12.30;99.90
27890;DHT22;15238;49.082;9.102;2023-04-24T07:08:23;12.50;99.90
27890;DHT22;15238;49.082;9.102;2023-04-24T07:10:24;12.40;99.90
27890;DHT22;15238;49.082;9.102;2023-04-24T07:12:27;12.30;99.90
27890;DHT22;15238;49.082;9.102;2023-04-24T07:14:27;12.40;99.90
27890;DHT22;15238;49.082;9.102;2023-04-24T07:16:28;12.40;99.90
27890;DHT22;15238;49.082;9.102;2023-04-24T07:18:28;12.40;99.90
27890;DHT22;15238;49.082;9.102;2023-04-24T07:20:29;12.50;99.90
27890;DHT22;15238;49.082;9.102;2023-04-24T07:22:29;12.60;99.90
27890;DHT22;15238;49.082;9.102;2023-04-24T07:24:30;12.80;99.90
27890;DHT22;15238;49.082;9.102;2023-04-24T07:26:32;12.90;99.90
27890;DHT22;15238;49.082;9.102;2023-04-24T07:28:33;13.00;99.90
27890;DHT22;15238;49.082;9.102;2023-04-24T07:30:33;13.10;99.90
27890;DHT22;15238;49.082;9.102;2023-04-24T07:32:34;13.10;99.90
27890;DHT22;15238;49.082;9.102;2023-04-24T07:34:35;12.80;99.90
27890;DHT22;15238;49.082;9.102;2023-04-24T07:36:36;12.60;99.90
27890;DHT22;15238;49.082;9.102;2023-04-24T07:38:38;12.50;99.90
27890;DHT22;15238;49.082;9.102;2023-04-24T07:40:39;12.50;99.90
27890;DHT22;15238;49.082;9.102;2023-04-24T07:42:39;12.60;99.90
27890;DHT22;15238;49.082;9.102;2023-04-24T07:44:40;12.60;99.90
27890;DHT22;15238;49.082;9.102;2023-04-24T07:46:40;12.60;99.90
27890;DHT22;15238;49.082;9.102;2023-04-24T07:48:41;12.40;99.90
27890;DHT22;15238;49.082;9.102;2023-04-24T07:50:42;12.40;99.90
27890;DHT22;15238;49.082;9.102;2023-04-24T07:52:42;12.60;99.90
27890;DHT22;15238;49.082;9.102;2023-04-24T07:54:43;12.60;99.90
27890;DHT22;15238;49.082;9.102;2023-04-24T07:56:44;12.80;99.90
27890;DHT22;15238;49.082;9.102;2023-04-24T07:58:44;12.80;99.90
27890;DHT22;15238;49.082;9.102;2023-04-24T08:00:45;12.90;99.90
27890;DHT22;15238;49.082;9.102;2023-04-24T08:02:45;12.90;99.90
27890;DHT22;15238;49.082;9.102;2023-04-24T08:04:46;12.90;99.90
27890;DHT22;15238;49.082;9.102;2023-04-24T08:06:49;12.50;99.90
27890;DHT22;15238;49.082;9.102;2023-04-24T08:08:50;12.40;99.90
27890;DHT22;15238;49.082;9.102;2023-04-24T08:10:51;12.40;99.90
27890;DHT22;15238;49.082;9.102;2023-04-24T08:12:52;12.50;99.90
27890;DHT22;15238;49.082;9.102;2023-04-24T08:14:52;12.50;99.90
27890;DHT22;15238;49.082;9.102;2023-04-24T08:16:56;12.50;99.90
27890;DHT22;15238;49.082;9.102;2023-04-24T08:18:56;12.70;99.90
27890;DHT22;15238;49.082;9.102;2023-04-24T08:20:57;12.80;99.90
27890;DHT22;15238;49.082;9.102;2023-04-24T08:23:01;12.70;99.90
27890;DHT22;15238;49.082;9.102;2023-04-24T08:25:02;12.70;99.90
27890;DHT22;15238;49.082;9.102;2023-04-24T08:27:02;12.90;99.90
27890;DHT22;15238;49.082;9.102;2023-04-24T08:29:03;13.10;99.90
27890;DHT22;15238;49.082;9.102;2023-04-24T08:31:04;13.30;99.90
27890;DHT22;15238;49.082;9.102;2023-04-24T08:33:04;13.50;99.90
27890;DHT22;15238;49.082;9.102;2023-04-24T08:35:05;13.30;99.90
27890;DHT22;15238;49.082;9.102;2023-04-24T08:37:06;13.00;99.90
27890;DHT22;15238;49.082;9.102;2023-04-24T08:39:06;12.90;99.90
27890;DHT22;15238;49.082;9.102;2023-04-24T08:41:07;12.70;99.90
27890;DHT22;15238;49.082;9.102;2023-04-24T08:43:10;12.40;99.90
27890;DHT22;15238;49.082;9.102;2023-04-24T08:45:12;12.30;99.90
27890;DHT22;15238;49.082;9.102;2023-04-24T08:47:12;12.20;99.90
27890;DHT22;15238;49.082;9.102;2023-04-24T08:49:14;12.00;99.90
27890;DHT22;15238;49.082;9.102;2023-04-24T08:51:16;11.90;99.90
27890;DHT22;15238;49.082;9.102;2023-04-24T08:53:18;11.70;99.90
27890;DHT22;15238;49.082;9.102;2023-04-24T08:55:20;11.60;99.90
27890;DHT22;15238;49.082;9.102;2023-04-24T08:57:21;11.60;99.90
27890;DHT22;15238;49.082;9.102;2023-04-24T08:59:22;11.60;99.90
27890;DHT22;15238;49.082;9.102;2023-04-24T09:01:24;11.50;99.90
27890;DHT22;15238;49.082;9.102;2023-04-24T09:03:27;11.40;99.90
27890;DHT22;15238;49.082;9.102;2023-04-24T09:05:28;11.50;99.90
27890;DHT22;15238;49.082;9.102;2023-04-24T09:07:30;11.70;99.90
27890;DHT22;15238;49.082;9.102;2023-04-24T09:09:33;12.00;99.90
27890;DHT22;15238;49.082;9.102;2023-04-24T09:11:34;12.30;99.90
27890;DHT22;15238;49.082;9.102;2023-04-24T09:13:35;12.70;99.90
27890;DHT22;15238;49.082;9.102;2023-04-24T09:15:36;13.00;99.90
27890;DHT22;15238;49.082;9.102;2023-04-24T09:17:38;13.20;99.90
27890;DHT22;15238;49.082;9.102;2023-04-24T09:19:38;13.40;99.90
27890;DHT22;15238;49.082;9.102;2023-04-24T09:21:39;13.40;99.90
27890;DHT22;15238;49.082;9.102;2023-04-24T09:23:42;13.40;99.90
27890;DHT22;15238;49.082;9.102;2023-04-24T09:25:42;13.40;99.90
27890;DHT22;15238;49.082;9.102;2023-04-24T09:27:45;12.90;99.90
27890;DHT22;15238;49.082;9.102;2023-04-24T09:29:56;12.70;99.90
27890;DHT22;15238;49.082;9.102;2023-04-24T09:31:56;12.40;99.90
27890;DHT22;15238;49.082;9.102;2023-04-24T09:35:57;12.20;99.90
27890;DHT22;15238;49.082;9.102;2023-04-24T09:37:59;12.10;99.90
27890;DHT22;15238;49.082;9.102;2023-04-24T09:40:17;12.40;99.90
27890;DHT22;15238;49.082;9.102;2023-04-24T09:42:19;12.80;99.90
27890;DHT22;15238;49.082;9.102;2023-04-24T09:44:21;13.00;99.90
27890;DHT22;15238;49.082;9.102;2023-04-24T09:46:30;13.10;99.90
27890;DHT22;15238;49.082;9.102;2023-04-24T09:48:37;13.30;99.90
27890;DHT22;15238;49.082;9.102;2023-04-24T09:50:37;13.50;99.90
27890;DHT22;15238;49.082;9.102;2023-04-24T09:52:46;13.50;99.90
27890;DHT22;15238;49.082;9.102;2023-04-24T09:54:53;13.80;99.90
27890;DHT22;15238;49.082;9.102;2023-04-24T09:56:54;14.00;99.90
27890;DHT22;15238;49.082;9.102;2023-04-24T09:58:55;14.30;99.90
27890;DHT22;15238;49.082;9.102;2023-04-24T10:01:04;14.10;99.90
27890;DHT22;15238;49.082;9.102;2023-04-24T10:03:05;13.70;99.90
27890;DHT22;15238;49.082;9.102;2023-04-24T10:05:11;13.20;99.90
27890;DHT22;15238;49.082;9.102;2023-04-24T10:07:12;13.10;99.90
27890;DHT22;15238;49.082;9.102;2023-04-24T10:09:16;12.90;99.90
27890;DHT22;15238;49.082;9.102;2023-04-24T10:11:17;12.70;99.90
27890;DHT22;15238;49.082;9.102;2023-04-24T10:13:18;12.70;99.90
27890;DHT22;15238;49.082;9.102;2023-04-24T10:15:18;12.40;99.90
27890;DHT22;15238;49.082;9.102;2023-04-24T10:17:22;12.20;99.90
27890;DHT22;15238;49.082;9.102;2023-04-24T10:19:25;12.20;99.90
27890;DHT22;15238;49.082;9.102;2023-04-24T10:21:26;12.10;99.90
27890;DHT22;15238;49.082;9.102;2023-04-24T10:23:27;12.10;99.90
27890;DHT22;15238;49.082;9.102;2023-04-24T10:25:30;12.20;99.90
27890;DHT22;15238;49.082;9.102;2023-04-24T10:27:31;12.30;99.90
27890;DHT22;15238;49.082;9.102;2023-04-24T10:29:32;12.40;99.90
27890;DHT22;15238;49.082;9.102;2023-04-24T10:31:36;12.50;99.90
27890;DHT22;15238;49.082;9.102;2023-04-24T10:33:42;12.70;99.90
27890;DHT22;15238;49.082;9.102;2023-04-24T10:35:45;12.70;99.90
27890;DHT22;15238;49.082;9.102;2023-04-24T10:38:05;12.60;99.90
27890;DHT22;15238;49.082;9.102;2023-04-24T10:40:08;12.70;99.90
27890;DHT22;15238;49.082;9.102;2023-04-24T10:42:15;13.00;99.90
27890;DHT22;15238;49.082;9.102;2023-04-24T10:44:16;13.20;99.90
27890;DHT22;15238;49.082;9.102;2023-04-24T10:46:20;13.30;99.90
27890;DHT22;15238;49.082;9.102;2023-04-24T10:48:26;13.50;99.90
27890;DHT22;15238;49.082;9.102;2023-04-24T10:50:28;13.60;99.90
27890;DHT22;15238;49.082;9.102;2023-04-24T10:52:47;13.80;99.90
27890;DHT22;15238;49.082;9.102;2023-04-24T10:54:48;13.90;99.90
27890;DHT22;15238;49.082;9.102;2023-04-24T10:56:51;14.10;99.90
27890;DHT22;15238;49.082;9.102;2023-04-24T10:58:53;14.30;99.90
27890;DHT22;15238;49.082;9.102;2023-04-24T11:00:58;14.10;99.90
27890;DHT22;15238;49.082;9.102;2023-04-24T11:02:59;14.10;99.90
27890;DHT22;15238;49.082;9.102;2023-04-24T11:05:03;13.70;99.70
27890;DHT22;15238;49.082;9.102;2023-04-24T11:07:04;13.40;99.90
27890;DHT22;15238;49.082;9.102;2023-04-24T11:09:10;13.40;99.90
27890;DHT22;15238;49.082;9.102;2023-04-24T11:11:14;13.40;99.90
27890;DHT22;15238;49.082;9.102;2023-04-24T11:13:16;13.40;99.90
27890;DHT22;15238;49.082;9.102;2023-04-24T11:15:17;13.40;99.90
27890;DHT22;15238;49.082;9.102;2023-04-24T11:17:32;13.50;99.90
27890;DHT22;15238;49.082;9.102;2023-04-24T11:19:33;13.40;99.90
27890;DHT22;15238;49.082;9.102;2023-04-24T11:21:54;13.20;99.50
27890;DHT22;15238;49.082;9.102;2023-04-24T11:23:55;12.90;99.90
27890;DHT22;15238;49.082;9.102;2023-04-24T11:26:10;12.40;99.90
27890;DHT22;15238;49.082;9.102;2023-04-24T11:28:15;12.00;99.90
27890;DHT22;15238;49.082;9.102;2023-04-24T11:30:20;12.00;99.90
27890;DHT22;15238;49.082;9.102;2023-04-24T11:32:34;11.80;99.90
27890;DHT22;15238;49.082;9.102;2023-04-24T11:34:38;11.80;99.90
27890;DHT22;15238;49.082;9.102;2023-04-24T11:36:42;12.00;99.90
27890;DHT22;15238;49.082;9.102;2023-04-24T11:38:42;12.20;99.90
27890;DHT22;15238;49.082;9.102;2023-04-24T11:40:43;12.40;99.90
27890;DHT22;15238;49.082;9.102;2023-04-24T11:42:52;12.50;99.90
27890;DHT22;15238;49.082;9.102;2023-04-24T11:44:54;12.60;99.90
27890;DHT22;15238;49.082;9.102;2023-04-24T11:46:56;12.80;99.90
27890;DHT22;15238;49.082;9.102;2023-04-24T11:48:57;13.10;99.90
27890;DHT22;15238;49.082;9.102;2023-04-24T11:51:01;13.20;99.90
27890;DHT22;15238;49.082;9.102;2023-04-24T11:53:04;13.30;99.90
27890;DHT22;15238;49.082;9.102;2023-04-24T11:55:07;13.20;99.90
27890;DHT22;15238;49.082;9.102;2023-04-24T11:57:08;13.20;99.90
27890;DHT22;15238;49.082;9.102;2023-04-24T11:59:08;13.00;99.90
27890;DHT22;15238;49.082;9.102;2023-04-24T12:01:09;12.60;99.90
27890;DHT22;15238;49.082;9.102;2023-04-24T12:03:11;12.70;99.90
27890;DHT22;15238;49.082;9.102;2023-04-24T12:05:22;12.60;99.90
27890;DHT22;15238;49.082;9.102;2023-04-24T12:07:23;12.70;99.90
27890;DHT22;15238;49.082;9.102;2023-04-24T12:09:25;12.70;99.90
27890;DHT22;15238;49.082;9.102;2023-04-24T12:11:25;12.60;99.90
27890;DHT22;15238;49.082;9.102;2023-04-24T12:13:26;12.80;99.90
27890;DHT22;15238;49.082;9.102;2023-04-24T12:15:27;12.90;99.90
27890;DHT22;15238;49.082;9.102;2023-04-24T12:17:30;13.00;99.90
27890;DHT22;15238;49.082;9.102;2023-04-24T12:19:31;12.90;99.90
27890;DHT22;15238;49.082;9.102;2023-04-24T12:21:31;12.90;99.90
27890;DHT22;15238;49.082;9.102;2023-04-24T12:23:34;12.90;99.90
27890;DHT22;15238;49.082;9.102;2023-04-24T12:25:35;12.80;99.90
27890;DHT22;15238;49.082;9.102;2023-04-24T12:27:36;12.90;99.90
27890;DHT22;15238;49.082;9.102;2023-04-24T12:29:37;13.00;99.90
27890;DHT22;15238;49.082;9.102;2023-04-24T12:31:37;13.10;99.90
27890;DHT22;15238;49.082;9.102;2023-04-24T12:33:38;13.00;99.90
27890;DHT22;15238;49.082;9.102;2023-04-24T12:35:40;13.10;99.90
27890;DHT22;15238;49.082;9.102;2023-04-24T12:37:42;13.00;99.90
27890;DHT22;15238;49.082;9.102;2023-04-24T12:42:03;12.90;99.90
27890;DHT22;15238;49.082;9.102;2023-04-24T12:44:10;12.50;99.90
27890;DHT22;15238;49.082;9.102;2023-04-24T12:46:11;12.10;99.90
27890;DHT22;15238;49.082;9.102;2023-04-24T12:48:11;12.00;99.90
27890;DHT22;15238;49.082;9.102;2023-04-24T12:50:15;12.10;99.90
27890;DHT22;15238;49.082;9.102;2023-04-24T12:52:15;12.40;99.90
27890;DHT22;15238;49.082;9.102;2023-04-24T12:54:16;12.80;99.90